Terminal Aerodrome Forecast
Issued by NWS

Home | Current Version | Previous Version | Text Only | Print | Product List | Glossary On
Versions: 1 2 3 4 5 6 7 8 9 10 11 12 13 14 15 16 17 18 19
000
FTPA31 PHFO 242335
TAFHNY
TAF
PHNY 242335Z 2500/2524 02014G20KT P6SM SCT030 BKN050
      TEMPO 2500/2504 VRB06KT OVC030
     FM250600 05011KT P6SM SCT035
     FM251000 05005KT P6SM SKC
     FM252000 30011KT P6SM SCT035=

USA.gov is the U.S. government's official web portal to all federal, state and local government web resources and services.